首页
METAR-TAF:

METAR-TAF

机场 :

贵阳龙洞堡国际机场

贵阳市, 中华人民共和国

纬度: 26-32-19N, 经度: 106-48-03E, 海拔: 1139米

当前天气观测

该预报发布于29分钟前的02:00 UTC
风速2节,风向多变
温度 22°C
湿度 94%
气压 1011 hPa
能見度: 5000
少量云层高于900英尺
轻雾

METAR: ZUGY 190200Z VRB01MPS 5000 BR FEW009 22/21 Q1011 NOSIG

时间: 10:29 (02:29 UTC)

预报

该预报发布于5小时和26分钟前的21:03 UTC
预报有效从19日的 00点(UTC)到 19日的 24点(UTC)
风速6节,风向
能見度: 1200
散云层高于3300英尺
轻雾
成为
从 19日的 00点(UTC)到 19日的 01点(UTC)
能見度: 3000

TAF: ZUGY 182103Z 1900/1924 18003MPS 1200 BR SCT033 TX32/1907Z TN18/1922Z BECMG 1900/1901 3000

超过4000个机场的气象观测和天气预报(METAR&TAF报告)。

可查询的气象台以黄色和红色小点在地图上表示。

将鼠标移到小点上方,可查看气象台名称。

然后点击查看天气观测和预报。

如需切换地图:点击带黑十字的绿色按钮放大地图;点击带横线的绿色按钮缩小地图;或者点击绿色箭头查看邻近地区的地图。


METAR-TAF: